sensor_id;sensor_type;location;lat;lon;timestamp;pressure;altitude;pressure_sealevel;temperature;humidity
46045;BME280;31781;54.094;13.428;2023-07-08T00:01:23;102331.22;;;18.12;61.85
46045;BME280;31781;54.094;13.428;2023-07-08T00:17:46;102325.00;;;17.92;58.71
46045;BME280;31781;54.094;13.428;2023-07-08T00:20:01;102325.63;;;17.87;61.20
46045;BME280;31781;54.094;13.428;2023-07-08T00:22:17;102324.16;;;17.85;61.48
46045;BME280;31781;54.094;13.428;2023-07-08T00:24:32;102323.75;;;17.81;62.19
46045;BME280;31781;54.094;13.428;2023-07-08T00:26:43;102327.78;;;17.79;60.32
46045;BME280;31781;54.094;13.428;2023-07-08T00:28:58;102328.44;;;17.74;61.50
46045;BME280;31781;54.094;13.428;2023-07-08T00:31:18;102320.63;;;17.71;61.05
46045;BME280;31781;54.094;13.428;2023-07-08T00:36:13;102336.09;;;17.66;60.76
46045;BME280;31781;54.094;13.428;2023-07-08T00:38:29;102333.75;;;17.63;62.29
46045;BME280;31781;54.094;13.428;2023-07-08T00:40:50;102340.56;;;17.60;60.16
46045;BME280;31781;54.094;13.428;2023-07-08T00:43:09;102333.75;;;17.56;60.41
46045;BME280;31781;54.094;13.428;2023-07-08T00:45:59;102336.34;;;17.58;58.68
46045;BME280;31781;54.094;13.428;2023-07-08T00:48:22;102345.22;;;17.53;61.50
46045;BME280;31781;54.094;13.428;2023-07-08T00:50:38;102340.16;;;17.50;62.42
46045;BME280;31781;54.094;13.428;2023-07-08T01:01:28;102342.50;;;17.40;60.00
46045;BME280;31781;54.094;13.428;2023-07-08T01:04:00;102342.28;;;17.35;60.51
46045;BME280;31781;54.094;13.428;2023-07-08T01:06:25;102347.19;;;17.33;60.07
46045;BME280;31781;54.094;13.428;2023-07-08T01:08:45;102338.50;;;17.29;60.98
46045;BME280;31781;54.094;13.428;2023-07-08T01:11:02;102346.31;;;17.26;62.61
46045;BME280;31781;54.094;13.428;2023-07-08T01:13:21;102342.09;;;17.23;62.44
46045;BME280;31781;54.094;13.428;2023-07-08T01:15:37;102343.38;;;17.21;61.17
46045;BME280;31781;54.094;13.428;2023-07-08T01:23:20;102345.94;;;17.09;61.84
46045;BME280;31781;54.094;13.428;2023-07-08T01:25:37;102342.13;;;17.03;62.49
46045;BME280;31781;54.094;13.428;2023-07-08T01:27:53;102336.00;;;17.01;61.71
46045;BME280;31781;54.094;13.428;2023-07-08T01:30:10;102337.28;;;16.99;64.06
46045;BME280;31781;54.094;13.428;2023-07-08T01:32:27;102340.47;;;16.96;63.92
46045;BME280;31781;54.094;13.428;2023-07-08T01:34:32;102340.84;;;16.93;64.27
46045;BME280;31781;54.094;13.428;2023-07-08T01:36:54;102338.09;;;16.93;63.20
46045;BME280;31781;54.094;13.428;2023-07-08T01:39:02;102337.50;;;16.91;63.22
46045;BME280;31781;54.094;13.428;2023-07-08T01:41:04;102339.59;;;16.89;63.19
46045;BME280;31781;54.094;13.428;2023-07-08T01:43:08;102337.06;;;16.87;62.87
46045;BME280;31781;54.094;13.428;2023-07-08T01:45:28;102335.38;;;16.86;63.59
46045;BME280;31781;54.094;13.428;2023-07-08T01:47:32;102336.66;;;16.84;63.66
46045;BME280;31781;54.094;13.428;2023-07-08T01:49:37;102332.19;;;16.83;64.23
46045;BME280;31781;54.094;13.428;2023-07-08T01:51:55;102332.44;;;16.81;63.50
46045;BME280;31781;54.094;13.428;2023-07-08T01:54:04;102331.59;;;16.81;63.65
46045;BME280;31781;54.094;13.428;2023-07-08T01:56:22;102332.22;;;16.76;64.06
46045;BME280;31781;54.094;13.428;2023-07-08T01:58:34;102331.78;;;16.73;63.73
46045;BME280;31781;54.094;13.428;2023-07-08T02:00:57;102333.06;;;16.70;62.05
46045;BME280;31781;54.094;13.428;2023-07-08T02:03:20;102336.44;;;16.66;63.51
46045;BME280;31781;54.094;13.428;2023-07-08T02:05:36;102342.13;;;16.64;63.12
46045;BME280;31781;54.094;13.428;2023-07-08T02:07:43;102336.88;;;16.63;63.07
46045;BME280;31781;54.094;13.428;2023-07-08T02:10:14;102331.38;;;16.63;61.05
46045;BME280;31781;54.094;13.428;2023-07-08T02:12:29;102335.59;;;16.59;63.03
46045;BME280;31781;54.094;13.428;2023-07-08T02:14:34;102333.03;;;16.57;62.60
46045;BME280;31781;54.094;13.428;2023-07-08T02:16:52;102334.09;;;16.56;62.20
46045;BME280;31781;54.094;13.428;2023-07-08T02:19:04;102335.34;;;16.53;62.13
46045;BME280;31781;54.094;13.428;2023-07-08T02:21:35;102336.38;;;16.52;62.02
46045;BME280;31781;54.094;13.428;2023-07-08T02:24:00;102334.47;;;16.46;64.59
46045;BME280;31781;54.094;13.428;2023-07-08T02:29:16;102333.81;;;16.38;62.70
46045;BME280;31781;54.094;13.428;2023-07-08T02:31:32;102346.09;;;16.35;63.77
46045;BME280;31781;54.094;13.428;2023-07-08T02:33:50;102337.19;;;16.33;63.58
46045;BME280;31781;54.094;13.428;2023-07-08T02:36:08;102341.00;;;16.32;62.98
46045;BME280;31781;54.094;13.428;2023-07-08T02:38:26;102345.84;;;16.30;63.30
46045;BME280;31781;54.094;13.428;2023-07-08T02:40:30;102347.75;;;16.30;63.25
46045;BME280;31781;54.094;13.428;2023-07-08T02:42:38;102339.72;;;16.28;63.78
46045;BME280;31781;54.094;13.428;2023-07-08T02:47:47;102331.06;;;16.25;61.93
46045;BME280;31781;54.094;13.428;2023-07-08T02:50:23;102336.56;;;16.25;60.69
46045;BME280;31781;54.094;13.428;2023-07-08T02:53:01;102327.22;;;16.19;61.63
46045;BME280;31781;54.094;13.428;2023-07-08T02:56:02;102327.88;;;16.21;61.27
46045;BME280;31781;54.094;13.428;2023-07-08T02:58:34;102327.88;;;16.21;61.18
46045;BME280;31781;54.094;13.428;2023-07-08T03:01:29;102325.75;;;16.17;64.19
46045;BME280;31781;54.094;13.428;2023-07-08T03:12:48;102326.38;;;16.05;61.22
46045;BME280;31781;54.094;13.428;2023-07-08T03:17:13;102332.47;;;16.01;61.22
46045;BME280;31781;54.094;13.428;2023-07-08T03:19:44;102329.53;;;16.02;60.97
46045;BME280;31781;54.094;13.428;2023-07-08T03:25:32;102329.28;;;15.97;65.00
46045;BME280;31781;54.094;13.428;2023-07-08T03:27:58;102324.03;;;15.96;62.37
46045;BME280;31781;54.094;13.428;2023-07-08T03:30:14;102326.72;;;15.89;65.31
46045;BME280;31781;54.094;13.428;2023-07-08T03:32:30;102332.44;;;15.88;64.61
46045;BME280;31781;54.094;13.428;2023-07-08T03:34:45;102328.19;;;15.85;64.50
46045;BME280;31781;54.094;13.428;2023-07-08T03:36:54;102330.72;;;15.87;65.95
46045;BME280;31781;54.094;13.428;2023-07-08T03:39:32;102329.69;;;15.88;63.68
46045;BME280;31781;54.094;13.428;2023-07-08T03:41:37;102324.63;;;15.85;66.88
46045;BME280;31781;54.094;13.428;2023-07-08T03:47:05;102327.38;;;15.91;63.56
46045;BME280;31781;54.094;13.428;2023-07-08T03:49:08;102323.97;;;15.89;65.86
46045;BME280;31781;54.094;13.428;2023-07-08T03:51:29;102324.81;;;15.90;64.41
46045;BME280;31781;54.094;13.428;2023-07-08T03:54:17;102330.31;;;15.90;65.89
46045;BME280;31781;54.094;13.428;2023-07-08T03:56:48;102337.09;;;15.94;63.87
46045;BME280;31781;54.094;13.428;2023-07-08T03:59:12;102322.31;;;15.95;66.75
46045;BME280;31781;54.094;13.428;2023-07-08T04:01:25;102327.59;;;15.96;66.77
46045;BME280;31781;54.094;13.428;2023-07-08T04:09:20;102333.13;;;16.10;63.98
46045;BME280;31781;54.094;13.428;2023-07-08T04:11:39;102327.66;;;16.10;65.58
46045;BME280;31781;54.094;13.428;2023-07-08T04:13:55;102337.16;;;16.14;68.07
46045;BME280;31781;54.094;13.428;2023-07-08T04:16:02;102331.06;;;16.18;67.64
46045;BME280;31781;54.094;13.428;2023-07-08T04:18:19;102336.97;;;16.22;69.75
46045;BME280;31781;54.094;13.428;2023-07-08T04:20:40;102331.91;;;16.25;69.12
46045;BME280;31781;54.094;13.428;2023-07-08T04:23:05;102343.75;;;16.32;66.58
46045;BME280;31781;54.094;13.428;2023-07-08T04:36:32;102336.44;;;16.72;66.92
46045;BME280;31781;54.094;13.428;2023-07-08T04:38:57;102343.63;;;16.80;69.25
46045;BME280;31781;54.094;13.428;2023-07-08T04:41:15;102340.66;;;16.88;68.45
46045;BME280;31781;54.094;13.428;2023-07-08T04:43:20;102336.63;;;16.97;67.35
46045;BME280;31781;54.094;13.428;2023-07-08T04:45:55;102327.97;;;17.07;69.04
46045;BME280;31781;54.094;13.428;2023-07-08T04:48:14;102329.22;;;17.17;68.79
46045;BME280;31781;54.094;13.428;2023-07-08T04:50:36;102324.13;;;17.27;68.38
46045;BME280;31781;54.094;13.428;2023-07-08T04:53:12;102320.69;;;17.38;66.74
46045;BME280;31781;54.094;13.428;2023-07-08T04:56:59;102323.63;;;17.50;66.69
46045;BME280;31781;54.094;13.428;2023-07-08T04:58:42;102332.31;;;17.60;69.35
46045;BME280;31781;54.094;13.428;2023-07-08T05:01:05;102321.66;;;17.70;68.05
46045;BME280;31781;54.094;13.428;2023-07-08T05:03:21;102326.94;;;17.78;69.80
46045;BME280;31781;54.094;13.428;2023-07-08T05:05:28;102324.78;;;17.87;70.34
46045;BME280;31781;54.094;13.428;2023-07-08T05:07:40;102334.91;;;17.99;68.23
46045;BME280;31781;54.094;13.428;2023-07-08T05:10:02;102333.38;;;18.10;68.92
46045;BME280;31781;54.094;13.428;2023-07-08T05:12:18;102331.19;;;18.19;69.89
46045;BME280;31781;54.094;13.428;2023-07-08T05:14:37;102342.75;;;18.34;67.78
46045;BME280;31781;54.094;13.428;2023-07-08T05:16:57;102343.34;;;18.42;70.62
46045;BME280;31781;54.094;13.428;2023-07-08T05:19:48;102332.03;;;18.57;67.90
46045;BME280;31781;54.094;13.428;2023-07-08T05:30:46;102338.38;;;19.07;69.72
46045;BME280;31781;54.094;13.428;2023-07-08T05:33:02;102338.09;;;19.15;70.86
46045;BME280;31781;54.094;13.428;2023-07-08T05:35:16;102339.88;;;19.28;70.98
46045;BME280;31781;54.094;13.428;2023-07-08T05:37:34;102338.06;;;19.40;70.67
46045;BME280;31781;54.094;13.428;2023-07-08T05:39:37;102335.63;;;19.50;70.50
46045;BME280;31781;54.094;13.428;2023-07-08T05:41:41;102342.91;;;19.63;69.91
46045;BME280;31781;54.094;13.428;2023-07-08T05:43:51;102336.63;;;19.74;68.14
46045;BME280;31781;54.094;13.428;2023-07-08T05:54:23;102327.53;;;20.33;64.76
46045;BME280;31781;54.094;13.428;2023-07-08T05:56:41;102327.38;;;20.46;63.04
46045;BME280;31781;54.094;13.428;2023-07-08T05:58:45;102330.16;;;20.58;63.94
46045;BME280;31781;54.094;13.428;2023-07-08T06:06:48;102321.91;;;21.04;61.82
46045;BME280;31781;54.094;13.428;2023-07-08T06:09:27;102330.38;;;21.21;61.45
46045;BME280;31781;54.094;13.428;2023-07-08T06:11:51;102327.00;;;21.30;62.86
46045;BME280;31781;54.094;13.428;2023-07-08T06:14:09;102328.69;;;21.43;62.40
46045;BME280;31781;54.094;13.428;2023-07-08T06:16:13;102333.34;;;21.54;62.04
46045;BME280;31781;54.094;13.428;2023-07-08T06:18:35;102327.53;;;21.67;60.94
46045;BME280;31781;54.094;13.428;2023-07-08T06:21:01;102327.00;;;21.82;60.19
46045;BME280;31781;54.094;13.428;2023-07-08T06:34:41;102343.47;;;22.57;56.79
46045;BME280;31781;54.094;13.428;2023-07-08T06:37:15;102343.31;;;22.63;55.46
46045;BME280;31781;54.094;13.428;2023-07-08T06:40:25;102336.19;;;22.84;55.84
46045;BME280;31781;54.094;13.428;2023-07-08T06:45:09;102338.56;;;23.09;52.70
46045;BME280;31781;54.094;13.428;2023-07-08T06:48:19;102331.88;;;23.26;54.58
46045;BME280;31781;54.094;13.428;2023-07-08T07:12:46;102340.16;;;24.52;53.87
46045;BME280;31781;54.094;13.428;2023-07-08T07:15:04;102343.31;;;24.60;53.21
46045;BME280;31781;54.094;13.428;2023-07-08T07:17:23;102333.66;;;24.73;51.92
46045;BME280;31781;54.094;13.428;2023-07-08T07:19:46;102339.94;;;24.85;52.43
46045;BME280;31781;54.094;13.428;2023-07-08T07:22:01;102341.69;;;24.96;51.45
46045;BME280;31781;54.094;13.428;2023-07-08T07:24:14;102335.63;;;25.04;50.74
46045;BME280;31781;54.094;13.428;2023-07-08T07:26:52;102342.97;;;25.20;50.94
46045;BME280;31781;54.094;13.428;2023-07-08T07:29:21;102340.28;;;25.31;51.18
46045;BME280;31781;54.094;13.428;2023-07-08T07:31:39;102344.81;;;25.42;50.07
46045;BME280;31781;54.094;13.428;2023-07-08T07:42:53;102326.66;;;25.91;48.99
46045;BME280;31781;54.094;13.428;2023-07-08T09:22:14;102347.19;;;29.34;39.33
46045;BME280;31781;54.094;13.428;2023-07-08T09:24:49;102343.84;;;29.32;37.83
46045;BME280;31781;54.094;13.428;2023-07-08T09:27:23;102335.09;;;29.39;38.80
46045;BME280;31781;54.094;13.428;2023-07-08T09:29:41;102336.41;;;29.46;36.88
46045;BME280;31781;54.094;13.428;2023-07-08T09:31:45;102338.31;;;29.51;36.36
46045;BME280;31781;54.094;13.428;2023-07-08T09:34:11;102341.22;;;29.65;37.91
46045;BME280;31781;54.094;13.428;2023-07-08T09:36:41;102335.81;;;29.73;36.72
46045;BME280;31781;54.094;13.428;2023-07-08T09:41:58;102334.53;;;29.84;38.39
46045;BME280;31781;54.094;13.428;2023-07-08T09:45:58;102329.94;;;29.93;38.25
46045;BME280;31781;54.094;13.428;2023-07-08T09:52:55;102332.88;;;30.07;36.62
46045;BME280;31781;54.094;13.428;2023-07-08T09:56:25;102330.38;;;30.24;37.04
46045;BME280;31781;54.094;13.428;2023-07-08T09:58:46;102331.72;;;30.27;34.86
46045;BME280;31781;54.094;13.428;2023-07-08T10:01:00;102338.13;;;30.32;34.48
46045;BME280;31781;54.094;13.428;2023-07-08T10:03:33;102331.59;;;30.37;35.48
46045;BME280;31781;54.094;13.428;2023-07-08T10:05:58;102333.22;;;30.43;35.23
46045;BME280;31781;54.094;13.428;2023-07-08T10:08:36;102331.47;;;30.47;35.21
46045;BME280;31781;54.094;13.428;2023-07-08T10:11:09;102327.75;;;30.52;34.73
46045;BME280;31781;54.094;13.428;2023-07-08T10:13:37;102329.63;;;30.56;36.22
46045;BME280;31781;54.094;13.428;2023-07-08T10:25:06;102336.03;;;30.75;35.80
46045;BME280;31781;54.094;13.428;2023-07-08T10:27:44;102327.31;;;30.77;35.06
46045;BME280;31781;54.094;13.428;2023-07-08T10:33:55;102339.34;;;30.96;36.78
46045;BME280;31781;54.094;13.428;2023-07-08T10:37:43;102334.00;;;31.00;35.38
46045;BME280;31781;54.094;13.428;2023-07-08T10:39:57;102335.16;;;31.12;36.22
46045;BME280;31781;54.094;13.428;2023-07-08T11:26:37;102315.94;;;32.15;32.36
46045;BME280;31781;54.094;13.428;2023-07-08T11:29:16;102315.59;;;32.16;33.94
46045;BME280;31781;54.094;13.428;2023-07-08T11:31:41;102301.94;;;32.10;29.38
46045;BME280;31781;54.094;13.428;2023-07-08T11:33:58;102305.06;;;32.08;29.79
46045;BME280;31781;54.094;13.428;2023-07-08T11:36:05;102304.56;;;32.06;29.67
46045;BME280;31781;54.094;13.428;2023-07-08T11:38:34;102306.75;;;32.09;32.45
46045;BME280;31781;54.094;13.428;2023-07-08T11:40:53;102309.56;;;32.09;30.61
46045;BME280;31781;54.094;13.428;2023-07-08T11:49:04;102318.09;;;32.18;32.28
46045;BME280;31781;54.094;13.428;2023-07-08T12:01:36;102306.47;;;32.33;32.40
46045;BME280;31781;54.094;13.428;2023-07-08T12:56:24;102293.84;;;32.97;31.30
46045;BME280;31781;54.094;13.428;2023-07-08T12:58:57;102293.66;;;32.94;31.49
46045;BME280;31781;54.094;13.428;2023-07-08T13:02:21;102296.31;;;32.90;29.75
46045;BME280;31781;54.094;13.428;2023-07-08T13:04:04;102298.28;;;32.90;28.93
46045;BME280;31781;54.094;13.428;2023-07-08T13:06:43;102291.69;;;32.94;31.41
46045;BME280;31781;54.094;13.428;2023-07-08T13:09:05;102288.03;;;32.94;28.89
46045;BME280;31781;54.094;13.428;2023-07-08T13:22:59;102278.25;;;32.91;29.70
46045;BME280;31781;54.094;13.428;2023-07-08T13:25:24;102279.38;;;32.90;28.94
46045;BME280;31781;54.094;13.428;2023-07-08T13:27:58;102274.78;;;32.94;31.30
46045;BME280;31781;54.094;13.428;2023-07-08T13:30:35;102277.94;;;32.93;29.57
46045;BME280;31781;54.094;13.428;2023-07-08T13:33:16;102278.56;;;32.90;30.09
46045;BME280;31781;54.094;13.428;2023-07-08T13:41:20;102274.53;;;32.82;28.96
46045;BME280;31781;54.094;13.428;2023-07-08T13:43:39;102281.84;;;32.83;29.37
46045;BME280;31781;54.094;13.428;2023-07-08T13:49:18;102285.19;;;32.85;26.73
46045;BME280;31781;54.094;13.428;2023-07-08T13:51:34;102286.63;;;32.83;27.68
46045;BME280;31781;54.094;13.428;2023-07-08T13:53:44;102292.28;;;32.83;29.61
46045;BME280;31781;54.094;13.428;2023-07-08T13:58:48;102292.16;;;32.88;29.72
46045;BME280;31781;54.094;13.428;2023-07-08T14:01:15;102300.50;;;32.93;30.09
46045;BME280;31781;54.094;13.428;2023-07-08T14:03:35;102291.19;;;32.92;28.35
46045;BME280;31781;54.094;13.428;2023-07-08T14:05:53;102290.84;;;32.94;29.03
46045;BME280;31781;54.094;13.428;2023-07-08T14:07:56;102293.38;;;32.95;28.93
46045;BME280;31781;54.094;13.428;2023-07-08T14:10:29;102280.59;;;32.98;30.50
46045;BME280;31781;54.094;13.428;2023-07-08T14:12:44;102285.22;;;32.94;27.92
46045;BME280;31781;54.094;13.428;2023-07-08T14:23:17;102284.66;;;32.83;26.30
46045;BME280;31781;54.094;13.428;2023-07-08T14:25:58;102277.50;;;32.77;28.21
46045;BME280;31781;54.094;13.428;2023-07-08T14:28:04;102280.97;;;32.74;26.81
46045;BME280;31781;54.094;13.428;2023-07-08T14:30:20;102276.47;;;32.73;26.92
46045;BME280;31781;54.094;13.428;2023-07-08T14:32:35;102275.94;;;32.71;26.05
46045;BME280;31781;54.094;13.428;2023-07-08T14:35:07;102280.25;;;32.68;27.52
46045;BME280;31781;54.094;13.428;2023-07-08T14:37:25;102268.97;;;32.68;26.08
46045;BME280;31781;54.094;13.428;2023-07-08T14:39:46;102275.13;;;32.70;28.25
46045;BME280;31781;54.094;13.428;2023-07-08T14:42:04;102275.63;;;32.72;28.18
46045;BME280;31781;54.094;13.428;2023-07-08T14:44:59;102274.16;;;32.75;29.07
46045;BME280;31781;54.094;13.428;2023-07-08T14:48:01;102271.84;;;32.77;29.63
46045;BME280;31781;54.094;13.428;2023-07-08T14:50:17;102282.75;;;32.70;25.57
46045;BME280;31781;54.094;13.428;2023-07-08T14:52:33;102280.56;;;32.67;26.51
46045;BME280;31781;54.094;13.428;2023-07-08T14:57:51;102273.09;;;32.62;29.51
46045;BME280;31781;54.094;13.428;2023-07-08T15:00:32;102276.31;;;32.56;28.28
46045;BME280;31781;54.094;13.428;2023-07-08T15:02:53;102272.50;;;32.52;27.70
46045;BME280;31781;54.094;13.428;2023-07-08T15:05:20;102266.84;;;32.52;29.41
46045;BME280;31781;54.094;13.428;2023-07-08T15:07:40;102265.81;;;32.48;27.53
46045;BME280;31781;54.094;13.428;2023-07-08T15:09:44;102256.34;;;32.44;26.61
46045;BME280;31781;54.094;13.428;2023-07-08T15:12:28;102263.13;;;32.43;29.14
46045;BME280;31781;54.094;13.428;2023-07-08T15:31:10;102237.06;;;32.01;28.48
46045;BME280;31781;54.094;13.428;2023-07-08T15:33:28;102240.81;;;31.97;28.33
46045;BME280;31781;54.094;13.428;2023-07-08T15:35:47;102235.53;;;31.95;27.03
46045;BME280;31781;54.094;13.428;2023-07-08T15:38:03;102236.03;;;31.97;27.21
46045;BME280;31781;54.094;13.428;2023-07-08T15:40:28;102229.25;;;31.98;28.83
46045;BME280;31781;54.094;13.428;2023-07-08T15:42:48;102234.69;;;31.95;27.21
46045;BME280;31781;54.094;13.428;2023-07-08T15:45:12;102233.34;;;31.92;28.85
46045;BME280;31781;54.094;13.428;2023-07-08T15:47:36;102231.69;;;31.91;29.19
46045;BME280;31781;54.094;13.428;2023-07-08T15:49:52;102228.66;;;31.88;28.01
46045;BME280;31781;54.094;13.428;2023-07-08T15:52:08;102223.03;;;31.88;28.62
46045;BME280;31781;54.094;13.428;2023-07-08T15:54:24;102225.84;;;31.88;28.99
46045;BME280;31781;54.094;13.428;2023-07-08T15:56:56;102222.19;;;31.87;28.72
46045;BME280;31781;54.094;13.428;2023-07-08T15:59:11;102219.69;;;31.85;29.18
46045;BME280;31781;54.094;13.428;2023-07-08T16:01:29;102220.88;;;31.84;29.72
46045;BME280;31781;54.094;13.428;2023-07-08T16:04:09;102220.66;;;31.81;30.25
46045;BME280;31781;54.094;13.428;2023-07-08T16:06:45;102218.25;;;31.74;29.93
46045;BME280;31781;54.094;13.428;2023-07-08T16:09:22;102220.28;;;31.74;30.68
46045;BME280;31781;54.094;13.428;2023-07-08T16:12:07;102214.44;;;31.70;30.46
46045;BME280;31781;54.094;13.428;2023-07-08T16:14:42;102216.22;;;31.66;30.74
46045;BME280;31781;54.094;13.428;2023-07-08T16:17:12;102219.66;;;31.63;30.06
46045;BME280;31781;54.094;13.428;2023-07-08T16:22:23;102225.50;;;31.53;29.97
46045;BME280;31781;54.094;13.428;2023-07-08T16:24:39;102214.66;;;31.47;29.31
46045;BME280;31781;54.094;13.428;2023-07-08T16:26:58;102225.78;;;31.38;29.45
46045;BME280;31781;54.094;13.428;2023-07-08T16:29:16;102218.13;;;31.30;29.79
46045;BME280;31781;54.094;13.428;2023-07-08T16:31:31;102219.88;;;31.26;29.63
46045;BME280;31781;54.094;13.428;2023-07-08T16:33:55;102213.50;;;31.20;30.38
46045;BME280;31781;54.094;13.428;2023-07-08T16:36:05;102215.63;;;31.15;29.42
46045;BME280;31781;54.094;13.428;2023-07-08T16:41:33;102223.09;;;31.06;30.98
46045;BME280;31781;54.094;13.428;2023-07-08T16:43:49;102213.41;;;30.98;29.56
46045;BME280;31781;54.094;13.428;2023-07-08T16:45:53;102219.09;;;30.93;30.34
46045;BME280;31781;54.094;13.428;2023-07-08T16:47:55;102218.88;;;30.89;30.58
46045;BME280;31781;54.094;13.428;2023-07-08T16:52:04;102221.16;;;30.87;30.93
46045;BME280;31781;54.094;13.428;2023-07-08T16:55:51;102216.38;;;30.74;31.04
46045;BME280;31781;54.094;13.428;2023-07-08T17:00:57;102224.53;;;30.57;31.31
46045;BME280;31781;54.094;13.428;2023-07-08T17:03:16;102217.34;;;30.51;31.88
46045;BME280;31781;54.094;13.428;2023-07-08T17:05:29;102216.59;;;30.46;31.66
46045;BME280;31781;54.094;13.428;2023-07-08T17:07:44;102220.31;;;30.41;31.18
46045;BME280;31781;54.094;13.428;2023-07-08T17:09:53;102227.97;;;30.35;30.92
46045;BME280;31781;54.094;13.428;2023-07-08T17:12:26;102223.28;;;30.31;31.64
46045;BME280;31781;54.094;13.428;2023-07-08T17:14:44;102225.97;;;30.22;30.50
46045;BME280;31781;54.094;13.428;2023-07-08T17:24:56;102245.00;;;29.88;32.53
46045;BME280;31781;54.094;13.428;2023-07-08T17:27:12;102238.59;;;29.82;31.91
46045;BME280;31781;54.094;13.428;2023-07-08T17:29:22;102239.19;;;29.79;31.94
46045;BME280;31781;54.094;13.428;2023-07-08T17:31:39;102238.13;;;29.75;31.77
46045;BME280;31781;54.094;13.428;2023-07-08T17:34:07;102227.84;;;29.71;32.57
46045;BME280;31781;54.094;13.428;2023-07-08T17:36:33;102223.72;;;29.63;32.54
46045;BME280;31781;54.094;13.428;2023-07-08T17:38:51;102219.91;;;29.54;32.70
46045;BME280;31781;54.094;13.428;2023-07-08T17:49:35;102208.59;;;29.40;32.52
46045;BME280;31781;54.094;13.428;2023-07-08T17:51:50;102203.13;;;29.30;31.79
46045;BME280;31781;54.094;13.428;2023-07-08T17:53:54;102207.97;;;29.20;31.97
46045;BME280;31781;54.094;13.428;2023-07-08T17:56:17;102202.50;;;29.10;32.48
46045;BME280;31781;54.094;13.428;2023-07-08T17:58:40;102200.72;;;28.95;31.50
46045;BME280;31781;54.094;13.428;2023-07-08T18:00:46;102205.06;;;28.82;32.46
46045;BME280;31781;54.094;13.428;2023-07-08T18:03:05;102204.91;;;28.69;32.86
46045;BME280;31781;54.094;13.428;2023-07-08T18:41:26;102191.44;;;26.39;34.50
46045;BME280;31781;54.094;13.428;2023-07-08T18:43:55;102203.19;;;26.26;34.99
46045;BME280;31781;54.094;13.428;2023-07-08T18:46:08;102209.56;;;26.16;35.84
46045;BME280;31781;54.094;13.428;2023-07-08T18:48:46;102212.63;;;26.05;35.76
46045;BME280;31781;54.094;13.428;2023-07-08T18:50:58;102212.06;;;25.93;35.31
46045;BME280;31781;54.094;13.428;2023-07-08T18:53:15;102217.88;;;25.81;35.64
46045;BME280;31781;54.094;13.428;2023-07-08T18:55:32;102213.69;;;25.74;36.71
46045;BME280;31781;54.094;13.428;2023-07-08T19:16:52;102217.94;;;24.82;36.97
46045;BME280;31781;54.094;13.428;2023-07-08T19:19:19;102226.22;;;24.72;37.36
46045;BME280;31781;54.094;13.428;2023-07-08T19:21:50;102224.19;;;24.62;37.22
46045;BME280;31781;54.094;13.428;2023-07-08T19:23:54;102220.75;;;24.50;38.00
46045;BME280;31781;54.094;13.428;2023-07-08T19:25:59;102225.44;;;24.45;37.75
46045;BME280;31781;54.094;13.428;2023-07-08T19:28:29;102222.31;;;24.36;38.33
46045;BME280;31781;54.094;13.428;2023-07-08T19:30:54;102216.41;;;24.28;37.65
46045;BME280;31781;54.094;13.428;2023-07-08T19:33:16;102229.38;;;24.17;38.28
46045;BME280;31781;54.094;13.428;2023-07-08T19:35:42;102228.16;;;24.08;37.63
46045;BME280;31781;54.094;13.428;2023-07-08T19:38:03;102228.31;;;23.96;38.69
46045;BME280;31781;54.094;13.428;2023-07-08T19:40:46;102237.09;;;23.88;38.06
46045;BME280;31781;54.094;13.428;2023-07-08T19:43:20;102223.94;;;23.79;38.52
46045;BME280;31781;54.094;13.428;2023-07-08T19:45:40;102233.84;;;23.69;39.30
46045;BME280;31781;54.094;13.428;2023-07-08T19:48:04;102241.53;;;23.62;39.64
46045;BME280;31781;54.094;13.428;2023-07-08T19:58:52;102230.00;;;23.32;40.22
46045;BME280;31781;54.094;13.428;2023-07-08T20:01:07;102229.63;;;23.23;41.93
46045;BME280;31781;54.094;13.428;2023-07-08T20:03:25;102225.38;;;23.16;42.26
46045;BME280;31781;54.094;13.428;2023-07-08T20:05:40;102223.03;;;23.08;43.05
46045;BME280;31781;54.094;13.428;2023-07-08T20:08:08;102222.63;;;22.99;41.34
46045;BME280;31781;54.094;13.428;2023-07-08T20:10:33;102223.91;;;22.92;43.50
46045;BME280;31781;54.094;13.428;2023-07-08T20:12:52;102226.63;;;22.87;43.19
46045;BME280;31781;54.094;13.428;2023-07-08T20:15:13;102231.50;;;22.79;43.18
46045;BME280;31781;54.094;13.428;2023-07-08T20:17:29;102227.81;;;22.74;44.40
46045;BME280;31781;54.094;13.428;2023-07-08T20:19:44;102218.78;;;22.67;44.89
46045;BME280;31781;54.094;13.428;2023-07-08T20:21:46;102218.97;;;22.60;45.58
46045;BME280;31781;54.094;13.428;2023-07-08T20:25:11;102216.63;;;22.52;43.44
46045;BME280;31781;54.094;13.428;2023-07-08T20:26:45;102224.16;;;22.40;45.21
46045;BME280;31781;54.094;13.428;2023-07-08T20:28:48;102230.13;;;22.32;45.90
46045;BME280;31781;54.094;13.428;2023-07-08T20:30:54;102238.88;;;22.24;45.90
46045;BME280;31781;54.094;13.428;2023-07-08T20:32:59;102240.13;;;22.16;46.16
46045;BME280;31781;54.094;13.428;2023-07-08T20:35:15;102248.84;;;22.08;47.04
46045;BME280;31781;54.094;13.428;2023-07-08T20:37:32;102251.78;;;22.02;47.54
46045;BME280;31781;54.094;13.428;2023-07-08T20:39:43;102244.72;;;21.94;47.36
46045;BME280;31781;54.094;13.428;2023-07-08T20:41:48;102243.72;;;21.89;47.83
46045;BME280;31781;54.094;13.428;2023-07-08T20:44:04;102249.19;;;21.83;47.49